createdAt,value
2018-05-16T00:02:16.691Z,28.37
2018-05-16T00:04:44.232Z,26.93
2018-05-16T00:07:11.799Z,27.57
2018-05-16T00:09:39.357Z,28.47
2018-05-16T00:12:06.872Z,27.20
2018-05-16T00:14:34.486Z,31.90
2018-05-16T00:17:02.050Z,30.70
2018-05-16T00:19:29.596Z,33.27
2018-05-16T00:21:57.107Z,34.97
2018-05-16T00:24:24.624Z,37.80
2018-05-16T00:26:52.178Z,35.13
2018-05-16T00:29:19.679Z,31.97
2018-05-16T00:31:47.188Z,33.13
2018-05-16T00:34:14.755Z,35.40
2018-05-16T00:36:42.264Z,37.07
2018-05-16T00:39:09.795Z,40.03
2018-05-16T00:41:37.331Z,37.50
2018-05-16T00:44:04.895Z,44.33
2018-05-16T00:46:32.450Z,42.57
2018-05-16T00:49:00.019Z,41.77
2018-05-16T00:51:32.416Z,40.40
2018-05-16T00:53:59.937Z,42.27
2018-05-16T00:56:27.532Z,40.27
2018-05-16T00:58:55.036Z,41.83
2018-05-16T01:01:22.528Z,37.07
2018-05-16T01:03:50.080Z,42.13
2018-05-16T01:06:17.619Z,39.13
2018-05-16T01:08:45.131Z,37.67
2018-05-16T01:11:12.687Z,37.80
2018-05-16T01:13:40.201Z,43.57
2018-05-16T01:16:07.739Z,42.90
2018-05-16T01:18:35.251Z,32.20
2018-05-16T01:21:02.814Z,39.63
2018-05-16T01:23:30.337Z,36.07
2018-05-16T01:25:57.834Z,39.40
2018-05-16T01:28:25.414Z,38.30
2018-05-16T01:30:52.951Z,33.00
2018-05-16T01:33:20.440Z,36.60
2018-05-16T01:35:48.021Z,34.63
2018-05-16T01:38:15.557Z,31.67
2018-05-16T01:40:43.063Z,33.43
2018-05-16T01:43:10.589Z,35.30
2018-05-16T01:45:38.184Z,29.37
2018-05-16T01:48:05.749Z,32.03
2018-05-16T01:50:33.339Z,29.20
2018-05-16T01:53:00.915Z,36.10
2018-05-16T01:55:28.464Z,31.90
2018-05-16T01:57:56.028Z,30.67
2018-05-16T02:00:23.639Z,30.33
2018-05-16T02:02:51.231Z,31.93
2018-05-16T02:05:18.755Z,34.93
2018-05-16T02:07:46.268Z,29.70
2018-05-16T02:10:13.836Z,29.07
2018-05-16T02:12:41.438Z,27.57
2018-05-16T02:15:08.991Z,31.20
2018-05-16T02:17:36.492Z,26.30
2018-05-16T02:20:04.042Z,30.00
2018-05-16T02:22:31.566Z,27.37
2018-05-16T02:24:59.083Z,27.93
2018-05-16T02:27:26.639Z,25.20
2018-05-16T02:29:54.173Z,25.73
2018-05-16T02:32:21.693Z,27.47
2018-05-16T02:34:49.220Z,32.37
2018-05-16T02:37:16.832Z,29.33
2018-05-16T02:39:44.323Z,28.87
2018-05-16T02:42:11.873Z,30.03
2018-05-16T02:44:39.410Z,32.17
2018-05-16T02:47:06.912Z,28.83
2018-05-16T02:49:34.428Z,30.53
2018-05-16T02:52:01.996Z,31.80
2018-05-16T02:54:29.544Z,31.50
2018-05-16T02:56:57.081Z,31.30
2018-05-16T02:59:24.594Z,33.60
2018-05-16T03:01:52.149Z,32.23
2018-05-16T03:04:19.638Z,33.57
2018-05-16T03:06:47.171Z,34.30
2018-05-16T03:09:14.701Z,34.40
2018-05-16T03:11:42.211Z,33.90
2018-05-16T03:14:09.735Z,31.53
2018-05-16T03:16:37.310Z,34.73
2018-05-16T03:19:04.910Z,37.83
2018-05-16T03:21:32.439Z,37.67
2018-05-16T03:23:59.996Z,37.77
2018-05-16T03:26:27.545Z,37.17
2018-05-16T03:28:55.124Z,35.83
2018-05-16T03:31:22.718Z,38.60
2018-05-16T03:33:50.227Z,37.20
2018-05-16T03:36:17.871Z,41.20
2018-05-16T03:38:45.415Z,38.30
2018-05-16T03:41:12.957Z,41.13
2018-05-16T03:43:40.517Z,37.17
2018-05-16T03:46:08.040Z,35.43
2018-05-16T03:48:35.544Z,41.70
2018-05-16T03:51:03.116Z,34.47
2018-05-16T03:53:30.674Z,33.23
2018-05-16T03:55:58.237Z,36.83
2018-05-16T03:58:37.464Z,33.60
2018-05-16T04:01:16.799Z,31.03
2018-05-16T04:03:56.019Z,37.47
2018-05-16T04:06:23.508Z,32.93
2018-05-16T04:08:51.160Z,33.03
2018-05-16T04:11:18.788Z,29.37
2018-05-16T04:13:46.365Z,29.77
2018-05-16T04:16:13.900Z,32.43
2018-05-16T04:18:41.471Z,28.63
2018-05-16T04:21:08.964Z,31.83
2018-05-16T04:23:36.583Z,29.93
2018-05-16T04:26:04.155Z,29.47
2018-05-16T04:28:32.828Z,32.20
2018-05-16T04:31:00.403Z,29.23
2018-05-16T04:33:27.951Z,28.27
2018-05-16T04:35:55.446Z,29.73
2018-05-16T04:38:22.959Z,35.50
2018-05-16T04:40:50.514Z,32.87
2018-05-16T04:43:18.014Z,33.50
2018-05-16T04:45:45.545Z,29.87
2018-05-16T04:48:13.111Z,33.33
2018-05-16T04:50:40.656Z,33.13
2018-05-16T04:53:08.248Z,32.67
2018-05-16T04:55:35.754Z,32.97
2018-05-16T04:58:03.315Z,32.67
2018-05-16T05:00:30.816Z,33.10
2018-05-16T05:02:58.340Z,34.60
2018-05-16T05:05:25.902Z,33.23
2018-05-16T05:07:53.410Z,33.10
2018-05-16T05:10:20.919Z,35.97
2018-05-16T05:12:48.451Z,33.37
2018-05-16T05:15:15.961Z,32.07
2018-05-16T05:17:43.538Z,36.40
2018-05-16T05:20:11.055Z,35.97
2018-05-16T05:22:38.614Z,33.30
2018-05-16T05:25:06.107Z,34.90
2018-05-16T05:27:33.630Z,36.03
2018-05-16T05:30:01.168Z,36.57
2018-05-16T05:32:28.667Z,31.13
2018-05-16T05:34:56.303Z,35.73
2018-05-16T05:37:23.845Z,32.03
2018-05-16T05:39:51.377Z,37.57
2018-05-16T05:42:18.917Z,30.53
2018-05-16T05:44:46.433Z,30.00
2018-05-16T05:47:13.935Z,32.63
2018-05-16T05:49:41.448Z,30.10
2018-05-16T05:52:08.980Z,36.17
2018-05-16T05:54:36.529Z,36.40
2018-05-16T05:57:04.047Z,41.47
2018-05-16T05:59:31.620Z,33.57
2018-05-16T06:01:59.164Z,32.83
2018-05-16T06:04:26.744Z,36.93
2018-05-16T06:06:55.213Z,34.27
2018-05-16T06:09:22.873Z,30.70
2018-05-16T06:11:50.397Z,33.30
2018-05-16T06:14:17.944Z,37.90
2018-05-16T06:16:45.466Z,36.13
2018-05-16T06:19:13.036Z,33.70
2018-05-16T06:21:40.564Z,32.07
2018-05-16T06:24:08.090Z,37.50
2018-05-16T06:26:35.809Z,34.40
2018-05-16T06:29:03.327Z,31.00
2018-05-16T06:31:30.833Z,41.60
2018-05-16T06:33:58.859Z,32.57
2018-05-16T06:36:26.613Z,34.07
2018-05-16T06:38:54.157Z,34.10
2018-05-16T06:41:21.729Z,32.93
2018-05-16T06:43:49.287Z,31.67
2018-05-16T06:46:16.892Z,31.80
2018-05-16T06:48:44.468Z,32.57
2018-05-16T06:51:12.040Z,30.60
2018-05-16T06:53:39.614Z,31.67
2018-05-16T06:56:07.237Z,28.90
2018-05-16T06:58:34.794Z,28.93
2018-05-16T07:01:02.371Z,33.03
2018-05-16T07:03:29.963Z,30.20
2018-05-16T07:05:57.497Z,30.40
2018-05-16T07:08:25.011Z,33.33
2018-05-16T07:10:52.600Z,29.70
2018-05-16T07:13:20.240Z,30.57
2018-05-16T07:15:47.801Z,28.57
2018-05-16T07:18:15.314Z,29.27
2018-05-16T07:20:42.947Z,31.87
2018-05-16T07:23:10.494Z,37.67
2018-05-16T07:25:38.037Z,30.53
2018-05-16T07:28:05.609Z,37.30
2018-05-16T07:30:33.141Z,30.70
2018-05-16T07:33:01.329Z,37.40
2018-05-16T07:35:28.902Z,36.17
2018-05-16T07:37:56.502Z,37.33
2018-05-16T07:40:24.176Z,34.80
2018-05-16T07:42:51.685Z,33.83
2018-05-16T07:45:19.283Z,34.83
2018-05-16T07:47:46.836Z,33.60
2018-05-16T07:50:14.426Z,35.87
2018-05-16T07:52:42.002Z,37.63
2018-05-16T07:55:09.660Z,36.10
2018-05-16T07:57:37.253Z,35.80
2018-05-16T08:00:05.697Z,40.40
2018-05-16T08:02:33.353Z,39.87
2018-05-16T08:05:01.472Z,37.17
2018-05-16T08:07:29.021Z,43.40
2018-05-16T08:09:56.909Z,36.30
2018-05-16T08:12:24.518Z,36.20
2018-05-16T08:14:55.647Z,34.93
2018-05-16T08:17:25.506Z,36.57
2018-05-16T08:19:54.455Z,37.37
2018-05-16T08:22:23.285Z,37.17
2018-05-16T08:24:51.415Z,36.03
2018-05-16T08:27:21.043Z,39.87
2018-05-16T08:29:49.119Z,41.60
2018-05-16T08:32:17.707Z,42.20
2018-05-16T08:34:46.693Z,34.83
2018-05-16T08:37:14.492Z,41.83
2018-05-16T08:39:43.437Z,36.07
2018-05-16T08:42:11.823Z,39.70
2018-05-16T08:44:39.388Z,43.67
2018-05-16T08:47:06.998Z,48.57
2018-05-16T08:49:34.595Z,40.07
2018-05-16T08:52:02.091Z,38.43
2018-05-16T08:54:29.691Z,36.07
2018-05-16T08:56:57.289Z,41.90
2018-05-16T08:59:24.817Z,36.90
2018-05-16T09:01:52.366Z,39.60
2018-05-16T09:04:19.880Z,37.27
2018-05-16T09:06:47.536Z,39.23
2018-05-16T09:09:15.079Z,42.60
2018-05-16T09:11:42.626Z,41.10
2018-05-16T09:14:10.988Z,41.23
2018-05-16T09:16:38.545Z,37.17
2018-05-16T09:19:06.091Z,37.83
2018-05-16T09:21:33.620Z,40.77
2018-05-16T09:24:01.136Z,35.10
2018-05-16T09:26:28.680Z,36.93
2018-05-16T09:28:56.253Z,35.97
2018-05-16T09:31:23.899Z,35.73
2018-05-16T09:33:51.816Z,39.30
2018-05-16T09:36:19.372Z,40.80
2018-05-16T09:38:47.856Z,40.53
2018-05-16T09:41:15.973Z,39.47
2018-05-16T09:43:43.513Z,39.50
2018-05-16T09:46:11.089Z,39.90
2018-05-16T09:48:38.646Z,39.00
2018-05-16T09:51:06.218Z,38.27
2018-05-16T09:53:33.775Z,37.77
2018-05-16T09:56:01.285Z,36.90
2018-05-16T09:58:28.876Z,38.53
2018-05-16T10:00:56.437Z,39.50
2018-05-16T10:03:24.626Z,46.33
2018-05-16T10:05:52.908Z,46.73
2018-05-16T10:08:20.484Z,42.13
2018-05-16T10:10:48.102Z,44.23
2018-05-16T10:13:15.626Z,41.70
2018-05-16T10:15:43.243Z,50.43
2018-05-16T10:18:10.770Z,50.27
2018-05-16T10:20:38.290Z,45.10
2018-05-16T10:23:05.902Z,43.63
2018-05-16T10:25:34.440Z,46.23
2018-05-16T10:28:02.022Z,46.37
2018-05-16T10:30:29.555Z,51.13
2018-05-16T10:32:57.184Z,49.67
2018-05-16T10:35:24.740Z,54.70
2018-05-16T10:37:52.283Z,49.27
2018-05-16T10:40:19.895Z,49.30
2018-05-16T10:42:47.486Z,51.70
2018-05-16T10:45:15.169Z,51.17
2018-05-16T10:47:42.671Z,50.50
2018-05-16T10:50:10.183Z,47.17
2018-05-16T10:52:38.438Z,47.17
2018-05-16T10:55:06.574Z,47.93
2018-05-16T10:57:34.127Z,52.53
2018-05-16T11:00:01.731Z,46.60
2018-05-16T11:02:29.240Z,50.40
2018-05-16T11:04:56.794Z,48.10
2018-05-16T11:07:24.398Z,46.53
2018-05-16T11:09:51.957Z,48.20
2018-05-16T11:12:19.468Z,50.87
2018-05-16T11:14:47.075Z,49.60
2018-05-16T11:17:14.662Z,48.23
2018-05-16T11:19:42.548Z,50.47
2018-05-16T11:22:10.569Z,44.80
2018-05-16T11:24:38.851Z,44.60
2018-05-16T11:27:06.412Z,50.57
2018-05-16T11:29:34.095Z,48.63
2018-05-16T11:32:01.873Z,43.57
2018-05-16T11:34:30.438Z,42.83
2018-05-16T11:36:58.693Z,38.80
2018-05-16T11:39:26.235Z,43.37
2018-05-16T11:41:54.439Z,36.97
2018-05-16T11:44:21.991Z,38.20
2018-05-16T11:46:49.559Z,40.07
2018-05-16T11:49:17.049Z,34.73
2018-05-16T11:51:45.410Z,35.07
2018-05-16T11:54:14.620Z,31.67
2018-05-16T11:56:42.187Z,33.30
2018-05-16T11:59:09.774Z,33.57
2018-05-16T12:01:37.308Z,32.87
2018-05-16T12:04:05.449Z,31.10
2018-05-16T12:06:33.062Z,30.07
2018-05-16T12:09:00.651Z,28.50
2018-05-16T12:11:28.198Z,27.10
2018-05-16T12:13:57.293Z,32.60
2018-05-16T12:16:24.835Z,26.90
2018-05-16T12:18:53.313Z,24.77
2018-05-16T12:21:21.015Z,26.57
2018-05-16T12:23:48.636Z,23.63
2018-05-16T12:26:16.225Z,25.27
2018-05-16T12:28:44.715Z,27.83
2018-05-16T12:31:12.271Z,21.70
2018-05-16T12:33:40.437Z,21.10
2018-05-16T12:36:08.532Z,20.83
2018-05-16T12:38:36.069Z,23.87
2018-05-16T12:41:04.343Z,26.43
2018-05-16T12:43:31.927Z,22.60
2018-05-16T12:45:59.500Z,21.03
2018-05-16T12:48:27.009Z,24.07
2018-05-16T12:50:55.190Z,24.67
2018-05-16T12:53:24.147Z,31.03
2018-05-16T12:55:51.677Z,22.60
2018-05-16T12:58:19.295Z,28.40
2018-05-16T13:00:46.884Z,24.60
2018-05-16T13:03:14.494Z,23.93
2018-05-16T13:05:42.045Z,24.03
2018-05-16T13:08:09.707Z,23.77
2018-05-16T13:10:38.235Z,23.47
2018-05-16T13:13:05.901Z,22.00
2018-05-16T13:15:33.400Z,22.60
2018-05-16T13:18:01.332Z,24.63
2018-05-16T13:20:29.484Z,21.83
2018-05-16T13:22:57.044Z,22.30
2018-05-16T13:25:24.600Z,19.47
2018-05-16T13:27:52.199Z,21.87
2018-05-16T13:30:20.581Z,25.03
2018-05-16T13:32:49.031Z,22.13
2018-05-16T13:35:16.653Z,21.67
2018-05-16T13:37:44.149Z,22.03
2018-05-16T13:40:11.688Z,20.83
2018-05-16T13:42:39.288Z,16.27
2018-05-16T13:45:06.788Z,13.23
2018-05-16T13:47:34.448Z,12.97
2018-05-16T13:50:02.564Z,13.47
2018-05-16T13:52:30.765Z,12.83
2018-05-16T13:54:58.378Z,10.20
2018-05-16T13:57:25.899Z,9.83
2018-05-16T13:59:53.443Z,13.57
2018-05-16T14:02:21.061Z,11.27
2018-05-16T14:04:48.657Z,12.67
2018-05-16T14:07:16.182Z,12.37
2018-05-16T14:09:43.691Z,12.60
2018-05-16T14:12:11.304Z,14.47
2018-05-16T14:14:39.328Z,15.83
2018-05-16T14:17:06.861Z,15.67
2018-05-16T14:19:34.391Z,15.73
2018-05-16T14:22:01.932Z,16.03
2018-05-16T14:24:29.508Z,18.13
2018-05-16T14:26:57.721Z,20.90
2018-05-16T14:29:25.270Z,17.60
2018-05-16T14:31:52.849Z,17.13
2018-05-16T14:34:20.531Z,17.50
2018-05-16T14:36:48.074Z,17.73
2018-05-16T14:39:15.593Z,18.43
2018-05-16T14:41:43.121Z,21.57
2018-05-16T14:44:10.709Z,21.67
2018-05-16T14:46:38.292Z,19.67
2018-05-16T14:49:05.985Z,23.17
2018-05-16T14:51:33.515Z,19.47
2018-05-16T14:54:01.070Z,23.97
2018-05-16T14:56:29.086Z,22.77
2018-05-16T14:58:56.606Z,24.23
2018-05-16T15:01:24.173Z,23.63
2018-05-16T15:03:51.714Z,20.57
2018-05-16T15:06:19.859Z,21.13
2018-05-16T15:08:47.410Z,23.77
2018-05-16T15:11:14.887Z,22.87
2018-05-16T15:13:43.078Z,32.63
2018-05-16T15:16:10.650Z,22.33
2018-05-16T15:18:38.198Z,20.07
2018-05-16T15:21:05.771Z,20.47
2018-05-16T15:23:33.347Z,21.37
2018-05-16T15:26:00.876Z,22.87
2018-05-16T15:28:36.928Z,20.30
2018-05-16T15:31:04.484Z,19.13
2018-05-16T15:33:31.994Z,23.63
2018-05-16T15:36:00.624Z,20.03
2018-05-16T15:38:28.507Z,18.57
2018-05-16T15:40:56.604Z,22.07
2018-05-16T15:43:24.110Z,19.90
2018-05-16T15:45:55.121Z,17.93
2018-05-16T15:48:26.490Z,17.77
2018-05-16T15:50:54.693Z,16.03
2018-05-16T15:53:22.258Z,24.87
2018-05-16T15:55:49.792Z,20.70
2018-05-16T15:58:17.911Z,19.30
2018-05-16T16:00:45.921Z,19.93
2018-05-16T16:03:13.503Z,23.43
2018-05-16T16:05:41.777Z,19.87
2018-05-16T16:08:09.422Z,22.93
2018-05-16T16:10:37.183Z,20.27
2018-05-16T16:13:04.737Z,24.50
2018-05-16T16:15:32.323Z,17.93
2018-05-16T16:18:00.074Z,19.30
2018-05-16T16:20:27.680Z,23.63
2018-05-16T16:22:55.320Z,19.23
2018-05-16T16:25:23.052Z,21.33
2018-05-16T16:27:50.602Z,21.67
2018-05-16T16:30:18.906Z,23.20
2018-05-16T16:32:46.458Z,23.20
2018-05-16T16:35:14.021Z,20.17
2018-05-16T16:37:41.782Z,21.90
2018-05-16T16:40:09.537Z,21.03
2018-05-16T16:42:38.239Z,24.10
2018-05-16T16:45:05.786Z,24.67
2018-05-16T16:47:33.353Z,23.60
2018-05-16T16:50:00.932Z,26.30
2018-05-16T16:52:28.526Z,27.47
2018-05-16T16:54:56.091Z,26.70
2018-05-16T16:57:23.829Z,26.13
2018-05-16T16:59:51.414Z,26.27
2018-05-16T17:02:18.999Z,24.03
2018-05-16T17:04:46.526Z,27.53
2018-05-16T17:07:14.327Z,23.47
2018-05-16T17:09:42.363Z,25.10
2018-05-16T17:12:10.878Z,29.00
2018-05-16T17:14:38.540Z,22.27
2018-05-16T17:17:06.103Z,22.30
2018-05-16T17:19:33.684Z,22.37
2018-05-16T17:22:01.281Z,29.33
2018-05-16T17:24:28.790Z,25.70
2018-05-16T17:26:56.445Z,22.43
2018-05-16T17:29:24.010Z,26.63
2018-05-16T17:31:52.507Z,27.47
2018-05-16T17:34:20.315Z,27.03
2018-05-16T17:36:48.332Z,24.10
2018-05-16T17:39:15.913Z,27.80
2018-05-16T17:41:43.525Z,27.77
2018-05-16T17:44:11.535Z,27.27
2018-05-16T17:46:40.253Z,22.60
2018-05-16T17:49:11.608Z,22.23
2018-05-16T17:51:39.268Z,25.80
2018-05-16T17:54:09.649Z,26.43
2018-05-16T17:56:37.293Z,22.97
2018-05-16T17:59:04.852Z,22.33
2018-05-16T18:01:32.480Z,23.00
2018-05-16T18:04:00.242Z,21.17
2018-05-16T18:06:27.834Z,22.37
2018-05-16T18:08:55.459Z,24.83
2018-05-16T18:11:24.909Z,24.07
2018-05-16T18:14:05.191Z,24.30
2018-05-16T18:19:37.128Z,25.30
2018-05-16T18:22:04.997Z,26.23
2018-05-16T18:24:32.916Z,28.37
2018-05-16T18:27:01.717Z,26.60
2018-05-16T18:29:29.317Z,31.23
2018-05-16T18:31:56.912Z,25.57
2018-05-16T18:34:24.494Z,24.90
2018-05-16T18:36:52.155Z,27.23
2018-05-16T18:39:19.811Z,26.87
2018-05-16T18:41:47.310Z,23.87
2018-05-16T18:44:15.630Z,27.63
2018-05-16T18:46:43.823Z,25.50
2018-05-16T18:49:11.398Z,26.60
2018-05-16T18:51:40.059Z,26.33
2018-05-16T18:54:07.888Z,29.57
2018-05-16T18:56:35.537Z,24.60
2018-05-16T18:59:03.230Z,27.10
2018-05-16T19:01:30.822Z,25.80
2018-05-16T19:03:58.388Z,23.97
2018-05-16T19:06:26.004Z,32.07
2018-05-16T19:08:53.598Z,28.53
2018-05-16T19:11:21.077Z,28.07
2018-05-16T19:13:48.682Z,28.93
2018-05-16T19:16:16.315Z,27.23
2018-05-16T19:18:43.855Z,27.73
2018-05-16T19:21:11.579Z,34.03
2018-05-16T19:23:39.259Z,28.33
2018-05-16T19:26:06.846Z,30.77
2018-05-16T19:28:34.569Z,29.20
2018-05-16T19:31:02.107Z,32.10
2018-05-16T19:33:29.727Z,35.73
2018-05-16T19:35:57.391Z,29.87
2018-05-16T19:38:25.026Z,36.60
2018-05-16T19:40:52.832Z,32.70
2018-05-16T19:43:20.316Z,29.73
2018-05-16T19:45:47.821Z,34.53
2018-05-16T19:48:15.376Z,30.40
2018-05-16T19:50:43.152Z,32.73
2018-05-16T19:53:10.691Z,35.73
2018-05-16T19:55:38.216Z,33.57
2018-05-16T19:58:05.774Z,31.97
2018-05-16T20:00:33.381Z,35.27
2018-05-16T20:03:00.946Z,39.63
2018-05-16T20:05:28.813Z,33.90
2018-05-16T20:07:56.541Z,39.00
2018-05-16T20:10:24.111Z,39.20
2018-05-16T20:12:51.659Z,41.20
2018-05-16T20:15:19.640Z,39.47
2018-05-16T20:17:47.804Z,38.57
2018-05-16T20:20:15.398Z,43.47
2018-05-16T20:22:43.057Z,43.10
2018-05-16T20:25:11.007Z,39.03
2018-05-16T20:27:38.529Z,43.73
2018-05-16T20:30:06.329Z,37.70
2018-05-16T20:32:33.980Z,36.83
2018-05-16T20:35:01.520Z,40.60
2018-05-16T20:37:29.090Z,32.30
2018-05-16T20:39:56.664Z,39.10
2018-05-16T20:42:24.108Z,33.50
2018-05-16T20:44:51.628Z,34.20
2018-05-16T20:47:19.162Z,33.90
2018-05-16T20:49:46.732Z,37.47
2018-05-16T20:52:14.260Z,33.63
2018-05-16T20:54:41.815Z,28.77
2018-05-16T20:57:09.324Z,35.67
2018-05-16T20:59:36.852Z,36.87
2018-05-16T21:02:04.593Z,27.37
2018-05-16T21:04:32.169Z,30.37
2018-05-16T21:06:59.701Z,38.03
2018-05-16T21:09:27.327Z,26.83
2018-05-16T21:11:54.924Z,27.50
2018-05-16T21:14:23.872Z,28.20
2018-05-16T21:16:51.468Z,32.93
2018-05-16T21:19:19.001Z,24.93
2018-05-16T21:21:46.599Z,28.83
2018-05-16T21:24:14.184Z,25.97
2018-05-16T21:26:41.738Z,31.07
2018-05-16T21:29:09.260Z,26.00
2018-05-16T21:31:36.775Z,35.00
2018-05-16T21:34:04.759Z,33.47
2018-05-16T21:36:32.388Z,27.00
2018-05-16T21:39:00.046Z,28.13
2018-05-16T21:41:27.632Z,29.67
2018-05-16T21:43:55.279Z,34.70
2018-05-16T21:46:22.816Z,34.93
2018-05-16T21:48:50.368Z,37.40
2018-05-16T21:51:17.899Z,29.23
2018-05-16T21:53:45.471Z,29.17
2018-05-16T21:56:12.968Z,30.70
2018-05-16T21:58:40.469Z,30.33
2018-05-16T22:01:07.984Z,27.73
2018-05-16T22:03:35.633Z,26.80
2018-05-16T22:06:03.307Z,28.27
2018-05-16T22:08:30.825Z,28.20
2018-05-16T22:10:58.339Z,34.90
2018-05-16T22:13:25.899Z,24.07
2018-05-16T22:15:53.745Z,30.37
2018-05-16T22:18:21.292Z,26.93
2018-05-16T22:20:48.884Z,27.93
2018-05-16T22:23:16.385Z,26.37
2018-05-16T22:25:43.980Z,27.20
2018-05-16T22:28:11.559Z,35.47
2018-05-16T22:30:44.640Z,27.67
2018-05-16T22:33:17.806Z,19.73
2018-05-16T22:35:50.953Z,24.37
2018-05-16T22:38:24.038Z,23.20
2018-05-16T22:40:56.999Z,24.97
2018-05-16T22:43:24.549Z,29.83
2018-05-16T22:45:54.844Z,27.23
2018-05-16T22:48:22.365Z,31.20
2018-05-16T22:50:49.909Z,24.43
2018-05-16T22:53:17.459Z,33.27
2018-05-16T22:55:44.999Z,34.87
2018-05-16T22:58:12.495Z,36.90
2018-05-16T23:00:39.997Z,36.63
2018-05-16T23:03:07.528Z,24.83
2018-05-16T23:05:35.033Z,26.47
2018-05-16T23:08:02.555Z,31.83
2018-05-16T23:10:30.065Z,37.13
2018-05-16T23:12:57.624Z,23.03
2018-05-16T23:15:25.164Z,29.83
2018-05-16T23:17:52.725Z,24.10
2018-05-16T23:20:20.214Z,37.40
2018-05-16T23:22:47.738Z,29.53
2018-05-16T23:25:15.267Z,29.57
2018-05-16T23:27:42.798Z,29.20
2018-05-16T23:30:10.373Z,25.27
2018-05-16T23:32:37.865Z,27.57
2018-05-16T23:35:05.348Z,28.00
2018-05-16T23:37:32.887Z,34.40
2018-05-16T23:40:00.376Z,28.17
2018-05-16T23:42:27.957Z,33.63
2018-05-16T23:47:48.478Z,36.80
2018-05-16T23:50:15.970Z,28.70
2018-05-16T23:52:43.483Z,25.70
2018-05-16T23:55:10.986Z,35.27
2018-05-16T23:57:38.547Z,23.17
